createdAt,value
2022-12-19T00:16:32.325Z,13.15
2022-12-19T00:25:46.124Z,11.90
2022-12-19T00:28:34.663Z,10.60
2022-12-19T00:31:28.263Z,12.55
2022-12-19T00:34:46.795Z,11.50
2022-12-19T00:54:19.698Z,11.32
2022-12-19T00:56:56.400Z,13.05
2022-12-19T01:10:35.804Z,11.18
2022-12-19T01:13:36.480Z,11.02
2022-12-19T01:19:56.503Z,10.65
2022-12-19T01:22:38.852Z,12.70
2022-12-19T02:34:09.041Z,13.13
2022-12-19T02:37:55.558Z,12.65
2022-12-19T02:41:41.712Z,12.75
2022-12-19T02:49:32.870Z,12.60
2022-12-19T02:57:04.991Z,10.38
2022-12-19T03:13:30.918Z,11.60
2022-12-19T03:16:12.286Z,11.65
2022-12-19T03:18:57.902Z,12.25
2022-12-19T03:21:52.534Z,12.13
2022-12-19T04:58:30.022Z,13.35
2022-12-19T05:01:07.193Z,13.73
2022-12-19T05:06:15.090Z,10.93
2022-12-19T05:44:07.911Z,12.52
2022-12-19T05:46:43.484Z,12.23
2022-12-19T05:49:27.099Z,12.95
2022-12-19T05:52:05.825Z,13.35
2022-12-19T06:22:20.284Z,14.82
2022-12-19T06:25:42.275Z,15.13
2022-12-19T06:37:08.327Z,13.52
2022-12-19T07:25:19.870Z,14.88
2022-12-19T08:38:58.749Z,15.60
2022-12-19T08:41:56.158Z,16.70
2022-12-19T09:08:04.352Z,16.85
2022-12-19T09:33:17.299Z,17.48
2022-12-19T09:55:54.488Z,19.48
2022-12-19T10:20:57.610Z,24.88
2022-12-19T11:19:34.885Z,23.35
2022-12-19T11:23:46.448Z,26.27
2022-12-19T11:29:26.348Z,26.75
2022-12-19T11:29:42.225Z,26.38
2022-12-19T11:30:59.408Z,28.40
2022-12-19T11:32:51.502Z,28.23
2022-12-19T11:35:37.042Z,28.25
2022-12-19T11:38:17.357Z,28.70
2022-12-19T11:40:58.124Z,27.05
2022-12-19T11:44:03.779Z,29.45
2022-12-19T11:47:20.038Z,29.15
2022-12-19T11:50:22.898Z,26.17
2022-12-19T11:53:18.346Z,26.83
2022-12-19T11:55:51.370Z,27.70
2022-12-19T11:58:19.038Z,27.65
2022-12-19T12:00:58.845Z,28.42
2022-12-19T12:03:40.938Z,27.02
2022-12-19T12:06:29.520Z,27.35
2022-12-19T12:10:46.064Z,27.25
2022-12-19T12:21:55.123Z,26.50
2022-12-19T12:28:24.355Z,26.85
2022-12-19T12:31:08.837Z,27.05
2022-12-19T12:31:10.966Z,25.50
2022-12-19T12:31:49.080Z,25.77
2022-12-19T12:35:08.004Z,25.67
2022-12-19T12:37:05.197Z,25.05
2022-12-19T12:41:10.638Z,26.02
2022-12-19T12:44:06.484Z,26.42
2022-12-19T12:46:45.083Z,26.98
2022-12-19T12:49:26.427Z,27.00
2022-12-19T12:51:54.420Z,28.70
2022-12-19T12:54:25.979Z,27.15
2022-12-19T12:56:55.478Z,27.30
2022-12-19T12:59:28.777Z,26.30
2022-12-19T13:02:24.054Z,26.88
2022-12-19T13:04:59.966Z,26.73
2022-12-19T13:07:44.969Z,26.48
2022-12-19T13:10:21.308Z,26.30
2022-12-19T13:13:01.296Z,26.35
2022-12-19T13:15:28.982Z,26.25
2022-12-19T13:18:27.257Z,27.88
2022-12-19T13:20:55.173Z,28.00
2022-12-19T13:23:22.685Z,27.95
2022-12-19T13:26:02.381Z,26.42
2022-12-19T13:39:59.498Z,27.38
2022-12-19T13:41:29.183Z,24.42
2022-12-19T14:04:54.530Z,26.77
2022-12-19T14:07:59.579Z,25.83
2022-12-19T14:11:33.672Z,26.23
2022-12-19T14:14:10.263Z,27.02
2022-12-19T14:16:51.467Z,25.88
2022-12-19T14:23:51.924Z,25.90
2022-12-19T14:28:25.618Z,25.65
2022-12-19T15:48:30.815Z,26.00
2022-12-19T15:50:59.459Z,28.65
2022-12-19T15:53:40.692Z,27.92
2022-12-19T15:56:24.476Z,27.95
2022-12-19T15:58:53.729Z,27.20
2022-12-19T16:01:21.881Z,27.83
2022-12-19T16:03:50.283Z,28.40
2022-12-19T16:06:18.284Z,28.70
2022-12-19T16:08:48.779Z,28.17
2022-12-19T16:11:21.522Z,28.50
2022-12-19T16:13:55.448Z,29.38
2022-12-19T16:16:23.265Z,29.58
2022-12-19T16:18:50.948Z,28.05
2022-12-19T16:21:24.640Z,27.98
2022-12-19T16:23:55.065Z,29.23
2022-12-19T16:26:31.732Z,27.67
2022-12-19T16:28:59.578Z,29.23
2022-12-19T16:31:28.308Z,27.83
2022-12-19T16:33:58.764Z,28.67
2022-12-19T16:36:29.273Z,28.40
2022-12-19T16:38:56.809Z,29.00
2022-12-19T16:41:28.516Z,28.17
2022-12-19T16:44:31.007Z,27.75
2022-12-19T16:46:58.653Z,28.13
2022-12-19T16:49:27.899Z,30.05
2022-12-19T16:51:55.351Z,28.35
2022-12-19T16:54:22.965Z,28.27
2022-12-19T16:56:53.835Z,29.73
2022-12-19T16:59:31.962Z,28.27
2022-12-19T17:02:00.393Z,29.25
2022-12-19T17:04:35.320Z,28.83
2022-12-19T17:07:13.221Z,26.55
2022-12-19T17:09:41.220Z,27.08
2022-12-19T17:12:18.321Z,27.48
2022-12-19T17:14:46.360Z,26.17
2022-12-19T17:17:17.318Z,25.02
2022-12-19T17:19:46.265Z,27.10
2022-12-19T17:22:19.041Z,25.83
2022-12-19T17:24:56.035Z,26.55
2022-12-19T17:27:28.210Z,27.60
2022-12-19T17:29:55.927Z,27.83
2022-12-19T17:32:26.628Z,27.17
2022-12-19T17:34:54.872Z,29.15
2022-12-19T17:37:22.556Z,29.88
2022-12-19T17:39:55.420Z,32.80
2022-12-19T17:42:25.119Z,29.90
2022-12-19T17:44:52.957Z,30.48
2022-12-19T17:47:33.600Z,30.38
2022-12-19T17:50:01.200Z,28.42
2022-12-19T17:52:36.975Z,27.33
2022-12-19T17:55:16.750Z,29.55
2022-12-19T17:57:44.573Z,28.13
2022-12-19T18:00:23.875Z,27.65
2022-12-19T18:03:18.197Z,26.67
2022-12-19T18:05:48.563Z,28.77
2022-12-19T18:08:24.780Z,28.08
2022-12-19T18:10:53.221Z,28.10
2022-12-19T18:13:20.817Z,28.50
2022-12-19T18:15:48.680Z,28.83
2022-12-19T18:18:21.673Z,30.20
2022-12-19T18:20:49.338Z,29.45
2022-12-19T18:23:23.635Z,27.85
2022-12-19T18:28:28.486Z,26.65
2022-12-19T18:31:01.940Z,27.83
2022-12-19T18:33:38.973Z,28.20
2022-12-19T18:36:13.734Z,28.50
2022-12-19T18:38:41.327Z,27.45
2022-12-19T18:41:13.353Z,27.05
2022-12-19T18:43:43.176Z,29.38
2022-12-19T18:46:16.347Z,27.92
2022-12-19T18:48:51.538Z,27.10
2022-12-19T18:51:21.062Z,28.83
2022-12-19T18:53:49.186Z,30.08
2022-12-19T18:56:16.724Z,30.38
2022-12-19T18:58:45.769Z,30.42
2022-12-19T19:01:17.444Z,30.02
2022-12-19T19:04:00.229Z,29.77
2022-12-19T19:06:37.812Z,27.98
2022-12-19T19:09:17.604Z,29.10
2022-12-19T19:11:56.646Z,28.95
2022-12-19T19:14:24.294Z,28.92
2022-12-19T19:16:53.378Z,28.20
2022-12-19T19:22:32.129Z,27.98
2022-12-19T19:27:40.048Z,25.20
2022-12-19T19:30:12.133Z,27.00
2022-12-19T19:32:46.893Z,26.10
2022-12-19T19:35:22.315Z,26.70
2022-12-19T19:37:56.016Z,24.92
2022-12-19T19:41:37.481Z,26.45
2022-12-19T19:44:07.695Z,26.83
2022-12-19T19:46:38.099Z,27.88
2022-12-19T19:49:06.481Z,26.42
2022-12-19T19:51:38.108Z,28.33
2022-12-19T19:54:06.402Z,24.95
2022-12-19T19:56:34.281Z,25.35
2022-12-19T19:59:06.579Z,26.33
2022-12-19T20:01:39.476Z,25.08
2022-12-19T20:04:12.852Z,26.73
2022-12-19T20:09:43.927Z,27.73
2022-12-19T20:12:14.404Z,29.08
2022-12-19T20:14:42.808Z,28.33
2022-12-19T20:17:11.968Z,29.13
2022-12-19T20:19:49.259Z,30.08
2022-12-19T20:25:48.721Z,26.77
2022-12-19T20:32:05.915Z,26.75
2022-12-19T20:34:33.798Z,28.77
2022-12-19T20:37:01.385Z,26.55
2022-12-19T20:39:29.706Z,27.35
2022-12-19T20:41:57.354Z,28.30
2022-12-19T20:44:25.552Z,28.30
2022-12-19T20:46:54.033Z,29.85
2022-12-19T20:49:24.305Z,28.98
2022-12-19T20:54:54.901Z,28.05
2022-12-19T20:57:40.654Z,27.85
2022-12-19T21:00:23.180Z,28.55
2022-12-19T21:10:17.656Z,27.52
2022-12-19T21:39:06.531Z,27.80
2022-12-19T21:42:07.014Z,27.67
2022-12-19T21:45:01.924Z,29.27
2022-12-19T21:55:14.962Z,28.45
2022-12-19T21:58:26.423Z,29.35
2022-12-19T22:01:20.689Z,28.63
2022-12-19T22:04:17.148Z,29.35
2022-12-19T22:07:14.869Z,31.85
2022-12-19T22:17:05.284Z,28.50
2022-12-19T22:19:38.852Z,28.25
2022-12-19T22:22:09.901Z,28.75
2022-12-19T22:25:19.541Z,29.08
2022-12-19T22:32:06.192Z,27.92
2022-12-19T22:35:01.675Z,27.48
2022-12-19T22:37:44.642Z,26.55
2022-12-19T22:40:13.544Z,28.00
2022-12-19T22:42:41.427Z,27.95
2022-12-19T22:45:12.304Z,27.30
2022-12-19T22:47:45.720Z,27.88
2022-12-19T22:50:13.727Z,28.98
2022-12-19T22:52:41.703Z,28.40
2022-12-19T22:55:15.948Z,29.77
2022-12-19T23:00:18.360Z,28.37
2022-12-19T23:02:50.179Z,28.48
2022-12-19T23:05:18.628Z,27.38
2022-12-19T23:07:46.534Z,27.52
2022-12-19T23:10:14.596Z,28.85
2022-12-19T23:12:42.673Z,28.65
2022-12-19T23:15:11.181Z,27.77
2022-12-19T23:17:43.006Z,28.33
2022-12-19T23:20:24.370Z,29.05
2022-12-19T23:22:54.296Z,27.00
2022-12-19T23:25:39.790Z,28.42
2022-12-19T23:28:16.446Z,30.08
2022-12-19T23:30:44.346Z,28.42
2022-12-19T23:33:16.155Z,27.75
2022-12-19T23:35:51.132Z,28.40
2022-12-19T23:38:22.044Z,28.88
2022-12-19T23:41:12.120Z,27.40
2022-12-19T23:43:53.943Z,27.08
2022-12-19T23:46:36.755Z,27.23
2022-12-19T23:49:07.959Z,28.83
2022-12-19T23:51:36.309Z,25.90
2022-12-19T23:54:10.435Z,27.48
2022-12-19T23:56:43.517Z,26.85
2022-12-19T23:59:15.766Z,27.27
